createdAt,value
2019-01-14T18:57:40.889Z,988.2
2019-01-14T18:58:00.924Z,988.1
2019-01-14T18:58:20.922Z,988.2
2019-01-14T18:58:41.019Z,988.2
2019-01-14T18:59:01.023Z,988.2
2019-01-14T18:59:21.125Z,988.2
2019-01-14T18:59:41.180Z,988.2
2019-01-14T19:00:01.173Z,988.2
2019-01-14T19:00:22.679Z,988.3
2019-01-14T19:00:42.703Z,988.2
2019-01-14T19:01:02.695Z,988.2
2019-01-14T19:01:22.761Z,988.3
2019-01-14T19:01:42.786Z,988.3
2019-01-14T19:02:02.780Z,988.3
2019-01-14T19:02:22.788Z,988.2
2019-01-14T19:02:42.786Z,988.3
2019-01-14T19:03:03.379Z,988.3
2019-01-14T19:03:23.612Z,988.3
2019-01-14T19:03:43.897Z,988.3
2019-01-14T19:04:04.836Z,988.3
2019-01-14T19:04:24.835Z,988.4
2019-01-14T19:04:44.885Z,988.3
2019-01-14T19:05:04.888Z,988.4
2019-01-14T19:05:25.433Z,988.4
2019-01-14T19:05:45.545Z,988.4
2019-01-14T19:06:06.913Z,988.4
2019-01-14T19:06:26.971Z,988.4
2019-01-14T19:06:47.097Z,988.4
2019-01-14T19:07:07.206Z,988.4
2019-01-14T19:07:27.223Z,988.4
2019-01-14T19:07:47.357Z,988.4
2019-01-14T19:08:07.398Z,988.4
2019-01-14T19:08:27.463Z,988.3
2019-01-14T19:08:47.510Z,988.4
2019-01-14T19:09:07.568Z,988.4
2019-01-14T19:09:27.599Z,988.4
2019-01-14T19:09:47.689Z,988.4
2019-01-14T19:10:07.836Z,988.4
2019-01-14T19:10:27.996Z,988.4
2019-01-14T19:10:54.239Z,988.4
2019-01-14T19:11:16.000Z,988.4
2019-01-14T19:11:36.129Z,988.3
2019-01-14T19:11:56.152Z,988.4
2019-01-14T19:12:16.286Z,988.4
2019-01-14T19:12:36.390Z,988.5
2019-01-14T19:12:56.549Z,988.4
2019-01-14T19:13:16.649Z,988.4
2019-01-14T19:13:36.725Z,988.5
2019-01-14T19:13:56.822Z,988.5
2019-01-14T19:14:16.919Z,988.5
2019-01-14T19:14:36.956Z,988.5
2019-01-14T19:14:56.986Z,988.4
2019-01-14T19:15:17.080Z,988.5
2019-01-14T19:15:37.265Z,988.5
2019-01-14T19:15:57.283Z,988.5
2019-01-14T19:16:19.010Z,988.6
2019-01-14T19:16:39.090Z,988.5
2019-01-14T19:16:59.145Z,988.5
2019-01-14T19:17:19.210Z,988.6
2019-01-14T19:17:39.305Z,988.5
2019-01-14T19:17:59.329Z,988.5
2019-01-14T19:18:19.369Z,988.5
2019-01-14T19:18:39.421Z,988.5
2019-01-14T19:18:59.425Z,988.5
2019-01-14T19:19:19.570Z,988.5
2019-01-14T19:19:39.585Z,988.5
2019-01-14T19:19:59.601Z,988.6
2019-01-14T19:20:19.622Z,988.5
2019-01-14T19:20:39.670Z,988.6
2019-01-14T19:20:59.689Z,988.6
2019-01-14T19:21:19.756Z,988.6
2019-01-14T19:21:40.818Z,988.6
2019-01-14T19:22:00.966Z,988.5
2019-01-14T19:22:20.989Z,988.6
2019-01-14T19:22:41.024Z,988.6
2019-01-14T19:23:01.057Z,988.6
2019-01-14T19:23:21.170Z,988.6
2019-01-14T19:23:41.166Z,988.6
2019-01-14T19:24:01.247Z,988.6
2019-01-14T19:24:21.267Z,988.6
2019-01-14T19:24:41.339Z,988.6
2019-01-14T19:25:01.387Z,988.6
2019-01-14T19:25:21.499Z,988.6
2019-01-14T19:25:41.581Z,988.6
2019-01-14T19:26:01.619Z,988.6
2019-01-14T19:26:21.673Z,988.6
2019-01-14T19:26:41.740Z,988.7
2019-01-14T19:27:02.013Z,988.7
2019-01-14T19:27:29.083Z,988.7
2019-01-14T19:27:49.120Z,988.7
2019-01-14T19:28:09.409Z,988.7
2019-01-14T19:28:29.599Z,988.7
2019-01-14T19:28:49.611Z,988.7
2019-01-14T19:29:09.661Z,988.7
2019-01-14T19:29:29.654Z,988.7
2019-01-14T19:29:49.710Z,988.7
2019-01-14T19:30:09.732Z,988.7
2019-01-14T19:30:29.763Z,988.7
2019-01-14T19:30:49.760Z,988.7
2019-01-14T19:31:09.770Z,988.7
2019-01-14T19:31:29.778Z,988.8
2019-01-14T19:31:49.799Z,988.7
2019-01-14T19:32:10.631Z,988.8
2019-01-14T19:32:30.660Z,988.8
2019-01-14T19:32:56.141Z,988.8
2019-01-14T19:33:16.242Z,988.7
2019-01-14T19:33:36.273Z,988.8
2019-01-14T19:33:56.304Z,988.8
2019-01-14T19:34:16.357Z,988.7
2019-01-14T19:34:36.394Z,988.8
2019-01-14T19:34:56.432Z,988.8
2019-01-14T19:35:16.509Z,988.8
2019-01-14T19:35:36.497Z,988.8
2019-01-14T19:35:56.555Z,988.8
2019-01-14T19:36:16.598Z,988.9
2019-01-14T19:36:36.589Z,988.9
2019-01-14T19:36:56.679Z,988.9
2019-01-14T19:37:16.693Z,988.8
2019-01-14T19:37:36.777Z,988.8
2019-01-14T19:37:57.450Z,988.9
2019-01-14T19:38:17.516Z,988.9
2019-01-14T19:38:37.524Z,988.9
2019-01-14T19:38:57.570Z,988.9
2019-01-14T19:39:17.582Z,988.9
2019-01-14T19:39:37.630Z,988.8
2019-01-14T19:39:57.609Z,988.8
2019-01-14T19:40:17.745Z,988.9
2019-01-14T19:40:37.751Z,988.9
2019-01-14T19:41:04.190Z,988.9
2019-01-14T19:41:24.261Z,988.9
2019-01-14T19:41:44.284Z,988.9
2019-01-14T19:42:04.319Z,989
2019-01-14T19:42:24.379Z,988.9
2019-01-14T19:42:44.402Z,988.9
2019-01-14T19:43:04.444Z,988.9
2019-01-14T19:43:24.462Z,988.9
2019-01-14T19:43:44.465Z,988.9
2019-01-14T19:44:04.610Z,988.9
2019-01-14T19:44:24.668Z,988.9
2019-01-14T19:44:44.690Z,988.9
2019-01-14T19:45:04.695Z,988.9
2019-01-14T19:45:24.723Z,988.9
2019-01-14T19:45:52.161Z,989
2019-01-14T19:46:12.208Z,989
2019-01-14T19:46:32.264Z,989
2019-01-14T19:46:52.251Z,989
2019-01-14T19:47:12.334Z,989
2019-01-14T19:47:32.324Z,988.9
2019-01-14T19:47:52.375Z,989
2019-01-14T19:48:12.760Z,989
2019-01-14T19:48:32.763Z,988.9
2019-01-14T19:48:52.850Z,989
2019-01-14T19:49:12.863Z,989
2019-01-14T19:49:33.631Z,989
2019-01-14T19:49:53.690Z,989
2019-01-14T19:50:13.738Z,989
2019-01-14T19:50:33.808Z,989.1
2019-01-14T19:50:53.850Z,989
2019-01-14T19:51:13.854Z,989
2019-01-14T19:51:34.039Z,989
2019-01-14T19:51:54.041Z,989
2019-01-14T19:52:14.046Z,989.1
2019-01-14T19:52:34.062Z,989
2019-01-14T19:52:54.061Z,989
2019-01-14T19:53:14.122Z,989.1
2019-01-14T19:53:34.139Z,989.1
2019-01-14T19:53:54.160Z,989
2019-01-14T19:54:14.222Z,989.1
2019-01-14T19:54:34.227Z,989
2019-01-14T19:54:54.287Z,989
2019-01-14T19:55:15.417Z,989.1
2019-01-14T19:55:35.480Z,989.1
2019-01-14T19:55:55.504Z,989.1
2019-01-14T19:56:15.501Z,989
2019-01-14T19:56:35.645Z,989.1
2019-01-14T19:56:55.706Z,989.1
2019-01-14T19:57:15.815Z,989.1
2019-01-14T19:57:35.882Z,989.1
2019-01-14T19:57:55.929Z,989.2
2019-01-14T19:58:15.948Z,989.3
2019-01-14T19:58:36.009Z,989.2
2019-01-14T19:58:56.069Z,989.3
2019-01-14T19:59:16.138Z,989.1
2019-01-14T19:59:36.172Z,989.2
2019-01-14T19:59:56.304Z,989.2
2019-01-14T20:00:16.358Z,989.2
2019-01-14T20:00:38.121Z,989.2
2019-01-14T20:00:58.201Z,989.2
2019-01-14T20:01:18.205Z,989.2
2019-01-14T20:01:38.292Z,989.2
2019-01-14T20:01:58.403Z,989.3
2019-01-14T20:02:18.436Z,989.2
2019-01-14T20:02:38.434Z,989.2
2019-01-14T20:02:58.558Z,989.2
2019-01-14T20:03:18.574Z,989.2
2019-01-14T20:03:38.566Z,989.2
2019-01-14T20:03:58.564Z,989.2
2019-01-14T20:04:18.625Z,989.2
2019-01-14T20:04:38.672Z,989.3
2019-01-14T20:04:58.700Z,989.2
2019-01-14T20:05:18.831Z,989.3
2019-01-14T20:05:38.854Z,989.3
2019-01-14T20:05:58.980Z,989.2
2019-01-14T20:06:19.040Z,989.3
2019-01-14T20:06:39.057Z,989.3
2019-01-14T20:06:59.206Z,989.3
2019-01-14T20:07:26.142Z,989.3
2019-01-14T20:07:46.207Z,989.3
2019-01-14T20:08:06.229Z,989.2
2019-01-14T20:08:26.308Z,989.3
2019-01-14T20:08:46.369Z,989.3
2019-01-14T20:09:06.584Z,989.2
2019-01-14T20:09:26.747Z,989.3
2019-01-14T20:09:46.800Z,989.3
2019-01-14T20:10:06.826Z,989.3
2019-01-14T20:10:26.828Z,989.2
2019-01-14T20:10:46.891Z,989.3
2019-01-14T20:11:14.087Z,989.3
2019-01-14T20:11:34.097Z,989.3
2019-01-14T20:11:54.147Z,989.4
2019-01-14T20:12:14.144Z,989.3
2019-01-14T20:12:34.171Z,989.4
2019-01-14T20:12:54.318Z,989.3
2019-01-14T20:13:14.358Z,989.3
2019-01-14T20:13:35.050Z,989.4
2019-01-14T20:13:55.077Z,989.4
2019-01-14T20:14:15.124Z,989.4
2019-01-14T20:14:35.111Z,989.4
2019-01-14T20:14:55.227Z,989.4
2019-01-14T20:15:15.300Z,989.4
2019-01-14T20:15:35.308Z,989.4
2019-01-14T20:15:55.327Z,989.4
2019-01-14T20:16:15.438Z,989.4
2019-01-14T20:16:35.532Z,989.4
2019-01-14T20:16:55.553Z,989.4
2019-01-14T20:17:15.974Z,989.4
2019-01-14T20:17:37.627Z,989.4
2019-01-14T20:17:57.734Z,989.4
2019-01-14T20:18:17.759Z,989.4
2019-01-14T20:18:37.924Z,989.4
2019-01-14T20:18:57.958Z,989.4
2019-01-14T20:19:18.013Z,989.4
2019-01-14T20:19:38.055Z,989.4
2019-01-14T20:19:58.090Z,989.4
2019-01-14T20:20:18.200Z,989.4
2019-01-14T20:20:38.272Z,989.4
2019-01-14T20:20:58.380Z,989.4
2019-01-14T20:21:18.640Z,989.4
2019-01-14T20:21:38.685Z,989.4
2019-01-14T20:21:58.790Z,989.4
2019-01-14T20:22:18.811Z,989.4
2019-01-14T20:22:40.355Z,989.4
2019-01-14T20:23:01.073Z,989.4
2019-01-14T20:23:21.109Z,989.4
2019-01-14T20:23:41.109Z,989.4
2019-01-14T20:24:07.551Z,989.4
2019-01-14T20:24:27.615Z,989.5
2019-01-14T20:24:47.616Z,989.5
2019-01-14T20:25:07.696Z,989.5
2019-01-14T20:25:27.791Z,989.5
2019-01-14T20:25:47.811Z,989.5
2019-01-14T20:26:08.599Z,989.5
2019-01-14T20:26:28.657Z,989.5
2019-01-14T20:26:49.004Z,989.4
2019-01-14T20:27:09.062Z,989.5
2019-01-14T20:27:29.143Z,989.5
2019-01-14T20:27:50.772Z,989.4
2019-01-14T20:28:10.841Z,989.5
2019-01-14T20:28:30.929Z,989.5
2019-01-14T20:28:51.056Z,989.5
2019-01-14T20:29:11.104Z,989.5
2019-01-14T20:29:31.109Z,989.4
2019-01-14T20:29:51.166Z,989.4
2019-01-14T20:30:11.225Z,989.4
2019-01-14T20:30:32.064Z,989.4
2019-01-14T20:30:52.117Z,989.4
2019-01-14T20:31:12.110Z,989.4
2019-01-14T20:31:32.148Z,989.4
2019-01-14T20:31:52.158Z,989.4
2019-01-14T20:32:12.220Z,989.4
2019-01-14T20:32:32.391Z,989.4
2019-01-14T20:32:52.401Z,989.5
2019-01-14T20:33:13.438Z,989.4
2019-01-14T20:33:34.760Z,989.5
2019-01-14T20:33:54.784Z,989.4
2019-01-14T20:34:14.826Z,989.5
2019-01-14T20:34:34.902Z,989.4
2019-01-14T20:34:54.982Z,989.4
2019-01-14T20:35:14.967Z,989.5
2019-01-14T20:35:35.067Z,989.5
2019-01-14T20:35:55.810Z,989.5
2019-01-14T20:36:16.031Z,989.5
2019-01-14T20:36:36.067Z,989.4
2019-01-14T20:36:56.116Z,989.5
2019-01-14T20:37:16.151Z,989.5
2019-01-14T20:37:36.187Z,989.5
2019-01-14T20:37:56.241Z,989.5
2019-01-14T20:38:16.490Z,989.4
2019-01-14T20:38:37.196Z,989.5
2019-01-14T20:38:57.259Z,989.5
2019-01-14T20:39:17.320Z,989.5
2019-01-14T20:39:37.315Z,989.5
2019-01-14T20:39:57.359Z,989.5
2019-01-14T20:40:17.357Z,989.4
2019-01-14T20:40:37.482Z,989.5
2019-01-14T20:40:57.509Z,989.5
2019-01-14T20:41:24.836Z,989.4
2019-01-14T20:41:44.947Z,989.5
2019-01-14T20:42:04.970Z,989.5
2019-01-14T20:42:25.006Z,989.5
2019-01-14T20:42:45.131Z,989.5
2019-01-14T20:43:05.191Z,989.5
2019-01-14T20:43:25.291Z,989.6
2019-01-14T20:43:45.373Z,989.4
2019-01-14T20:44:12.651Z,989.6
2019-01-14T20:44:32.713Z,989.5
2019-01-14T20:44:52.694Z,989.5
2019-01-14T20:45:12.705Z,989.5
2019-01-14T20:45:32.721Z,989.5
2019-01-14T20:45:54.180Z,989.5
2019-01-14T20:46:14.315Z,989.6
2019-01-14T20:46:34.357Z,989.6
2019-01-14T20:46:54.404Z,989.6
2019-01-14T20:47:15.589Z,989.6
2019-01-14T20:47:35.748Z,989.6
2019-01-14T20:47:55.806Z,989.7
2019-01-14T20:48:16.009Z,989.6
2019-01-14T20:48:36.041Z,989.7
2019-01-14T20:48:56.161Z,989.7
2019-01-14T20:49:16.215Z,989.6
2019-01-14T20:49:36.231Z,989.7
2019-01-14T20:49:56.258Z,989.6
2019-01-14T20:50:16.320Z,989.6
2019-01-14T20:50:36.399Z,989.6
2019-01-14T20:50:56.480Z,989.6
2019-01-14T20:51:16.478Z,989.6
2019-01-14T20:51:36.570Z,989.6
2019-01-14T20:51:56.598Z,989.6
2019-01-14T20:52:16.636Z,989.6
2019-01-14T20:52:36.670Z,989.7
2019-01-14T20:52:56.717Z,989.7
2019-01-14T20:53:23.889Z,989.6
2019-01-14T20:53:43.983Z,989.7
2019-01-14T20:54:04.022Z,989.7
2019-01-14T20:54:24.063Z,989.7
2019-01-14T20:54:44.092Z,989.7
2019-01-14T20:55:04.421Z,989.7
2019-01-14T20:55:24.490Z,989.8
2019-01-14T20:55:44.564Z,989.6
2019-01-14T20:56:04.592Z,989.7
2019-01-14T20:56:24.659Z,989.8
2019-01-14T20:56:44.700Z,989.8
2019-01-14T20:57:04.756Z,989.8
2019-01-14T20:57:24.841Z,989.7
2019-01-14T20:57:44.931Z,989.8
2019-01-14T20:58:05.558Z,989.8
2019-01-14T20:58:25.568Z,989.8
2019-01-14T20:58:45.881Z,989.8
2019-01-14T20:59:05.972Z,989.8
2019-01-14T20:59:33.262Z,989.9
2019-01-14T20:59:56.310Z,989.8
2019-01-14T21:00:16.323Z,989.9
2019-01-14T21:00:36.335Z,989.8
2019-01-14T21:00:57.413Z,989.9
2019-01-14T21:01:17.448Z,989.8
2019-01-14T21:01:37.461Z,989.8
2019-01-14T21:01:57.457Z,989.8
2019-01-14T21:02:17.500Z,989.7
2019-01-14T21:02:37.518Z,989.8
2019-01-14T21:02:57.591Z,989.8
2019-01-14T21:03:17.997Z,989.9
2019-01-14T21:03:38.044Z,989.9
2019-01-14T21:03:58.457Z,989.9
2019-01-14T21:04:18.599Z,989.9
2019-01-14T21:04:38.605Z,989.9
2019-01-14T21:04:58.672Z,989.9
2019-01-14T21:05:18.718Z,989.9
2019-01-14T21:05:38.762Z,989.9
2019-01-14T21:05:58.831Z,989.9
2019-01-14T21:06:18.842Z,989.9
2019-01-14T21:06:40.092Z,989.9
2019-01-14T21:07:00.196Z,989.9
2019-01-14T21:07:20.222Z,989.9
2019-01-14T21:07:40.297Z,989.9
2019-01-14T21:08:00.360Z,989.9
2019-01-14T21:08:20.442Z,990
2019-01-14T21:08:40.448Z,989.9
2019-01-14T21:09:00.438Z,989.9
2019-01-14T21:09:20.456Z,989.9
2019-01-14T21:09:40.540Z,989.9
2019-01-14T21:10:00.587Z,989.8
2019-01-14T21:10:20.676Z,989.9
2019-01-14T21:10:40.693Z,989.9
2019-01-14T21:11:00.736Z,989.9
2019-01-14T21:11:26.513Z,989.9
2019-01-14T21:11:46.562Z,989.8
2019-01-14T21:12:06.792Z,989.8
2019-01-14T21:12:26.855Z,989.8
2019-01-14T21:12:46.933Z,989.9
2019-01-14T21:13:06.945Z,989.8
2019-01-14T21:13:26.994Z,989.8
2019-01-14T21:13:47.028Z,989.8
2019-01-14T21:14:07.067Z,989.8
2019-01-14T21:14:27.124Z,989.8
2019-01-14T21:14:47.191Z,989.8
2019-01-14T21:15:07.266Z,989.8
2019-01-14T21:15:27.448Z,989.8
2019-01-14T21:15:47.463Z,989.8
2019-01-14T21:16:13.683Z,989.8
2019-01-14T21:16:33.775Z,989.9
2019-01-14T21:16:53.824Z,989.9
2019-01-14T21:17:13.909Z,989.9
2019-01-14T21:17:33.946Z,989.9
2019-01-14T21:17:54.056Z,990
2019-01-14T21:18:14.085Z,990
2019-01-14T21:18:34.114Z,990
2019-01-14T21:18:54.139Z,990
2019-01-14T21:19:14.219Z,989.9
2019-01-14T21:19:34.298Z,989.9
2019-01-14T21:19:54.321Z,990
2019-01-14T21:20:14.417Z,990
2019-01-14T21:20:34.471Z,989.9
2019-01-14T21:20:54.572Z,990
2019-01-14T21:21:14.612Z,990
2019-01-14T21:21:34.672Z,989.9
2019-01-14T21:21:54.708Z,990
2019-01-14T21:22:14.722Z,990
2019-01-14T21:22:34.814Z,990
2019-01-14T21:22:55.808Z,990
2019-01-14T21:23:15.820Z,990
2019-01-14T21:23:35.861Z,990
2019-01-14T21:23:55.971Z,990
2019-01-14T21:24:16.012Z,990.1
2019-01-14T21:24:36.104Z,989.9
2019-01-14T21:24:56.178Z,989.9
2019-01-14T21:25:16.197Z,990
2019-01-14T21:25:36.281Z,990
2019-01-14T21:25:56.330Z,990
2019-01-14T21:26:16.453Z,989.9
2019-01-14T21:26:36.554Z,990
2019-01-14T21:26:56.546Z,990
2019-01-14T21:27:16.627Z,990
2019-01-14T21:27:36.700Z,990
2019-01-14T21:27:56.844Z,990
2019-01-14T21:28:16.874Z,989.9
2019-01-14T21:28:36.915Z,990
2019-01-14T21:28:56.939Z,990
2019-01-14T21:29:16.951Z,990
2019-01-14T21:29:41.079Z,989.9
2019-01-14T21:30:01.679Z,990
2019-01-14T21:30:21.755Z,990
2019-01-14T21:30:41.835Z,990
2019-01-14T21:31:02.195Z,990
2019-01-14T21:31:22.183Z,990
2019-01-14T21:31:42.242Z,990
2019-01-14T21:32:02.273Z,990
2019-01-14T21:32:22.622Z,990
2019-01-14T21:32:42.859Z,990
2019-01-14T21:33:03.230Z,989.9
2019-01-14T21:33:23.285Z,989.9
2019-01-14T21:33:43.313Z,990
2019-01-14T21:34:03.323Z,989.9
2019-01-14T21:34:23.380Z,989.9
2019-01-14T21:34:43.419Z,989.9
2019-01-14T21:35:03.466Z,990
2019-01-14T21:35:23.534Z,990
2019-01-14T21:35:43.568Z,990
2019-01-14T21:36:03.620Z,989.9
2019-01-14T21:36:23.611Z,990
2019-01-14T21:36:43.641Z,989.9
2019-01-14T21:37:03.651Z,989.9
2019-01-14T21:37:23.633Z,989.9
2019-01-14T21:37:43.711Z,989.9
2019-01-14T21:38:03.849Z,989.9
2019-01-14T21:38:23.874Z,989.9
2019-01-14T21:38:43.903Z,990
2019-01-14T21:39:03.950Z,989.9
2019-01-14T21:39:43.625Z,990
2019-01-14T21:40:03.654Z,990
2019-01-14T21:40:23.761Z,990
2019-01-14T21:40:44.863Z,989.9
2019-01-14T21:41:04.894Z,989.9
2019-01-14T21:41:31.095Z,989.9
2019-01-14T21:41:51.474Z,990
2019-01-14T21:42:11.494Z,990
2019-01-14T21:42:31.520Z,990
2019-01-14T21:42:51.554Z,990
2019-01-14T21:43:11.665Z,989.9
2019-01-14T21:43:31.762Z,990
2019-01-14T21:43:51.777Z,990
2019-01-14T21:44:11.810Z,990
2019-01-14T21:44:31.850Z,990
2019-01-14T21:44:51.927Z,990
2019-01-14T21:45:11.983Z,990
2019-01-14T21:45:32.255Z,990
2019-01-14T21:45:52.329Z,990
2019-01-14T21:46:12.365Z,990
2019-01-14T21:46:33.181Z,990
2019-01-14T21:46:53.242Z,990
2019-01-14T21:47:13.318Z,989.9
2019-01-14T21:47:40.133Z,990.1
2019-01-14T21:48:02.013Z,990
2019-01-14T21:48:27.594Z,990
2019-01-14T21:48:47.666Z,990
2019-01-14T21:49:07.759Z,990
2019-01-14T21:49:27.889Z,990
2019-01-14T21:49:47.893Z,990
2019-01-14T21:50:07.915Z,990
2019-01-14T21:50:29.208Z,990
2019-01-14T21:50:49.416Z,990.1
2019-01-14T21:51:09.455Z,990
2019-01-14T21:51:29.503Z,990
2019-01-14T21:51:49.622Z,990
2019-01-14T21:52:09.859Z,990
2019-01-14T21:52:29.916Z,990
2019-01-14T21:52:49.998Z,990
2019-01-14T21:53:09.995Z,990
2019-01-14T21:53:30.063Z,990
2019-01-14T21:53:50.126Z,990
2019-01-14T21:54:10.173Z,990
2019-01-14T21:54:30.242Z,990
2019-01-14T21:54:50.289Z,990
2019-01-14T21:55:10.344Z,990
2019-01-14T21:55:30.358Z,990
2019-01-14T21:55:50.370Z,989.9
2019-01-14T21:56:10.395Z,990.1
2019-01-14T21:56:30.432Z,990
2019-01-14T21:56:51.722Z,990
2019-01-14T21:57:11.765Z,990
2019-01-14T21:57:31.781Z,990
2019-01-14T21:57:51.825Z,990
2019-01-14T21:58:11.947Z,990
2019-01-14T21:58:32.035Z,990
2019-01-14T21:58:52.035Z,990
2019-01-14T21:59:12.412Z,990
2019-01-14T21:59:32.470Z,990.1
2019-01-14T21:59:52.490Z,990.1
2019-01-14T22:00:12.509Z,990.1
2019-01-14T22:00:32.530Z,990
2019-01-14T22:00:52.543Z,990
2019-01-14T22:01:12.585Z,990
2019-01-14T22:01:32.638Z,990.1
2019-01-14T22:01:52.635Z,990
2019-01-14T22:02:12.651Z,990.1
2019-01-14T22:02:32.709Z,990
2019-01-14T22:02:52.750Z,990
2019-01-14T22:03:12.809Z,990.1
2019-01-14T22:03:33.348Z,990.1
2019-01-14T22:03:53.363Z,990
2019-01-14T22:04:13.429Z,990
2019-01-14T22:04:33.536Z,990
2019-01-14T22:04:53.557Z,990.1
2019-01-14T22:05:13.726Z,989.9
2019-01-14T22:05:33.769Z,990
2019-01-14T22:05:53.757Z,990.1
2019-01-14T22:06:14.127Z,990
2019-01-14T22:06:34.287Z,990
2019-01-14T22:06:54.708Z,990
2019-01-14T22:07:14.860Z,990
2019-01-14T22:07:35.029Z,990
2019-01-14T22:07:55.120Z,990.1
2019-01-14T22:08:15.146Z,990
2019-01-14T22:08:36.496Z,990
2019-01-14T22:08:56.488Z,990
2019-01-14T22:09:16.538Z,990
2019-01-14T22:09:36.542Z,990
2019-01-14T22:09:56.592Z,990.1
2019-01-14T22:10:16.741Z,990.1
2019-01-14T22:10:36.802Z,990.1
2019-01-14T22:10:57.075Z,990
2019-01-14T22:11:17.156Z,990
2019-01-14T22:11:43.679Z,990
2019-01-14T22:12:03.672Z,990.1
2019-01-14T22:12:23.706Z,990
2019-01-14T22:12:43.780Z,990
2019-01-14T22:13:03.827Z,990.1
2019-01-14T22:13:23.895Z,990
2019-01-14T22:13:43.956Z,990
2019-01-14T22:14:04.016Z,990
2019-01-14T22:14:24.098Z,989.9
2019-01-14T22:14:44.143Z,990
2019-01-14T22:15:04.243Z,990
2019-01-14T22:15:24.236Z,990
2019-01-14T22:15:44.588Z,990
2019-01-14T22:16:04.680Z,990
2019-01-14T22:16:25.407Z,990
2019-01-14T22:16:45.477Z,990
2019-01-14T22:17:05.445Z,990
2019-01-14T22:17:25.503Z,990
2019-01-14T22:17:45.543Z,990
2019-01-14T22:18:05.543Z,990
2019-01-14T22:18:25.609Z,990
2019-01-14T22:18:45.660Z,990
2019-01-14T22:19:05.671Z,990.1
2019-01-14T22:19:25.700Z,990.1
2019-01-14T22:19:45.732Z,990
2019-01-14T22:20:05.776Z,990
2019-01-14T22:20:25.857Z,989.9
2019-01-14T22:20:46.014Z,990
2019-01-14T22:21:06.058Z,989.9
2019-01-14T22:21:26.067Z,990
2019-01-14T22:21:46.082Z,990
2019-01-14T22:22:06.147Z,990
2019-01-14T22:22:26.148Z,990
2019-01-14T22:22:46.168Z,990
2019-01-14T22:23:06.225Z,990.1
2019-01-14T22:23:26.258Z,990
2019-01-14T22:23:46.263Z,990.1
2019-01-14T22:24:06.266Z,990
2019-01-14T22:24:26.350Z,990
2019-01-14T22:24:47.895Z,990
2019-01-14T22:25:07.902Z,990
2019-01-14T22:25:27.932Z,990.1
2019-01-14T22:25:47.990Z,990
2019-01-14T22:26:07.989Z,990
2019-01-14T22:26:28.050Z,990.1
2019-01-14T22:26:48.099Z,990.1
2019-01-14T22:27:08.160Z,990.1
2019-01-14T22:27:28.202Z,990.1
2019-01-14T22:27:48.196Z,990
2019-01-14T22:28:08.190Z,990
2019-01-14T22:28:28.231Z,990
2019-01-14T22:28:48.250Z,990
2019-01-14T22:29:08.332Z,990
2019-01-14T22:29:28.299Z,990
2019-01-14T22:29:48.316Z,990
2019-01-14T22:30:08.370Z,990
2019-01-14T22:30:28.434Z,990.1
2019-01-14T22:30:48.482Z,990
2019-01-14T22:31:08.535Z,990.1
2019-01-14T22:31:28.643Z,990.1
2019-01-14T22:31:49.971Z,990.1
2019-01-14T22:32:09.965Z,990.1
2019-01-14T22:32:29.963Z,990.1
2019-01-14T22:32:49.997Z,990.1
2019-01-14T22:33:10.068Z,990.1
2019-01-14T22:33:30.106Z,990
2019-01-14T22:33:50.161Z,989.9
2019-01-14T22:34:10.167Z,990.1
2019-01-14T22:34:30.154Z,990
2019-01-14T22:34:50.395Z,990.1
2019-01-14T22:35:10.489Z,990
2019-01-14T22:35:30.545Z,990
2019-01-14T22:35:50.609Z,990
2019-01-14T22:36:10.662Z,990
2019-01-14T22:36:30.692Z,990
2019-01-14T22:36:50.718Z,990
2019-01-14T22:37:10.717Z,990
2019-01-14T22:37:30.765Z,990
2019-01-14T22:37:50.770Z,989.9
2019-01-14T22:38:11.931Z,989.9
2019-01-14T22:38:32.028Z,989.9
2019-01-14T22:38:52.074Z,990
2019-01-14T22:39:12.097Z,990
2019-01-14T22:39:32.120Z,990
2019-01-14T22:39:52.160Z,990
2019-01-14T22:40:12.173Z,990
2019-01-14T22:40:32.241Z,990
2019-01-14T22:40:52.240Z,990.1
2019-01-14T22:41:12.320Z,990.1
2019-01-14T22:41:32.356Z,990
2019-01-14T22:41:58.581Z,990
2019-01-14T22:42:18.605Z,990
2019-01-14T22:42:38.691Z,990
2019-01-14T22:42:58.725Z,990
2019-01-14T22:43:19.557Z,990.1
2019-01-14T22:43:39.616Z,990
2019-01-14T22:43:59.655Z,990
2019-01-14T22:44:19.723Z,990
2019-01-14T22:44:39.818Z,990.1
2019-01-14T22:44:59.874Z,990.1
2019-01-14T22:45:19.927Z,990
2019-01-14T22:45:39.998Z,990.1
2019-01-14T22:45:59.991Z,990.1
2019-01-14T22:46:20.023Z,990
2019-01-14T22:46:40.118Z,990.1
2019-01-14T22:47:00.184Z,990
2019-01-14T22:47:20.243Z,990.1
2019-01-14T22:47:40.282Z,990.1
2019-01-14T22:48:00.382Z,990.1
2019-01-14T22:48:20.411Z,990.1
2019-01-14T22:48:40.387Z,990.1
2019-01-14T22:49:00.458Z,990.1
2019-01-14T22:49:20.468Z,990.1
2019-01-14T22:49:40.488Z,990.1
2019-01-14T22:50:00.535Z,990.2
2019-01-14T22:50:20.574Z,990.2
2019-01-14T22:50:40.578Z,990.2
2019-01-14T22:51:00.630Z,990.2
2019-01-14T22:51:20.741Z,990.2
2019-01-14T22:51:40.825Z,990.2
2019-01-14T22:52:01.757Z,990.2
2019-01-14T22:52:21.796Z,990.2
2019-01-14T22:52:41.863Z,990.2
2019-01-14T22:53:01.918Z,990.2
2019-01-14T22:53:21.938Z,990.2
2019-01-14T22:53:41.943Z,990.2
2019-01-14T22:54:02.593Z,990.1
2019-01-14T22:54:22.614Z,990.2
2019-01-14T22:54:42.675Z,990.1
2019-01-14T22:55:02.729Z,990.1
2019-01-14T22:55:22.767Z,990.2
2019-01-14T22:55:42.800Z,990.1
2019-01-14T22:56:02.875Z,990.1
2019-01-14T22:56:22.902Z,990.1
2019-01-14T22:56:42.913Z,990.1
2019-01-14T22:57:02.975Z,990.2
2019-01-14T22:57:22.971Z,990.2
2019-01-14T22:57:43.007Z,990.1
2019-01-14T22:58:03.052Z,990.1
2019-01-14T22:58:23.137Z,990.2
2019-01-14T22:58:43.228Z,990.1
2019-01-14T22:59:03.242Z,990.1
2019-01-14T22:59:23.246Z,990.1
2019-01-14T22:59:43.285Z,990.1
2019-01-14T23:00:03.340Z,990.1
2019-01-14T23:00:23.365Z,990
2019-01-14T23:00:43.466Z,990.1
2019-01-14T23:01:03.488Z,990
2019-01-14T23:01:23.555Z,990.2
2019-01-14T23:01:43.568Z,990.2
2019-01-14T23:02:03.566Z,990.1
2019-01-14T23:02:23.627Z,990
2019-01-14T23:02:43.636Z,989.9
2019-01-14T23:03:03.711Z,990.1
2019-01-14T23:03:23.794Z,990.1
2019-01-14T23:03:43.830Z,990.1
2019-01-14T23:04:04.910Z,990.1
2019-01-14T23:04:25.056Z,990.1
2019-01-14T23:04:45.091Z,990.1
2019-01-14T23:05:05.124Z,990.2
2019-01-14T23:05:25.139Z,990.1
2019-01-14T23:05:45.154Z,990
2019-01-14T23:06:05.225Z,990.1
2019-01-14T23:06:25.305Z,990.1
2019-01-14T23:06:45.355Z,990.1
2019-01-14T23:07:05.528Z,990.1
2019-01-14T23:07:25.569Z,990.2
2019-01-14T23:07:45.588Z,990.1
2019-01-14T23:08:05.621Z,990.1
2019-01-14T23:08:25.692Z,990.1
2019-01-14T23:08:45.686Z,990.1
2019-01-14T23:09:05.706Z,990.1
2019-01-14T23:09:25.719Z,990.2
2019-01-14T23:09:45.789Z,990.1
2019-01-14T23:10:05.917Z,990.1
2019-01-14T23:10:25.991Z,990.1
2019-01-14T23:10:46.062Z,990.1
2019-01-14T23:11:06.162Z,990.1
2019-01-14T23:11:26.241Z,990.1
2019-01-14T23:11:52.780Z,990.1
2019-01-14T23:12:13.047Z,990.1
2019-01-14T23:12:33.086Z,990.2
2019-01-14T23:12:53.102Z,990.1
2019-01-14T23:13:13.133Z,990
2019-01-14T23:13:33.136Z,990.1
2019-01-14T23:13:54.083Z,990.1
2019-01-14T23:14:14.266Z,990.1
2019-01-14T23:14:34.377Z,990.1
2019-01-14T23:14:54.370Z,990.1
2019-01-14T23:15:14.402Z,990
2019-01-14T23:15:34.437Z,990.1
2019-01-14T23:15:54.529Z,990
2019-01-14T23:16:15.855Z,990
2019-01-14T23:16:35.912Z,990
2019-01-14T23:16:56.031Z,990
2019-01-14T23:17:16.049Z,990.1
2019-01-14T23:17:36.064Z,990.1
2019-01-14T23:17:56.114Z,990
2019-01-14T23:18:16.207Z,990.1
2019-01-14T23:18:36.191Z,990
2019-01-14T23:18:56.190Z,990.1
2019-01-14T23:19:16.268Z,990.1
2019-01-14T23:19:36.328Z,990
2019-01-14T23:19:56.406Z,990.1
2019-01-14T23:20:16.448Z,990.2
2019-01-14T23:20:36.494Z,990.1
2019-01-14T23:20:56.625Z,990.1
2019-01-14T23:21:16.627Z,990.1
2019-01-14T23:21:36.646Z,990.1
2019-01-14T23:21:56.620Z,990.1
2019-01-14T23:22:16.664Z,990.1
2019-01-14T23:22:36.668Z,990.1
2019-01-14T23:22:56.668Z,990.1
2019-01-14T23:23:16.737Z,990.1
2019-01-14T23:23:36.797Z,990.1
2019-01-14T23:23:56.803Z,990.1